This is the latest recevied weather packets stored in our database for station/object DB8NZ-11. If no packets are shown the sender has not sent any weather packets the latest 1 day(s).
| Time | Temp. | Humidity | Pressure | Rain* | Wind** | Luminosity | Snow |
|---|---|---|---|---|---|---|---|
| 1778404868 | 27.22° C | 34% | 1017.1 hPa | - | - | - | - |
| 1778403968 | 27.22° C | 35% | 1017.1 hPa | - | - | - | - |
| 1778403068 | 26.11° C | 36% | 1017.3 hPa | - | - | - | - |
| 1778402168 | 27.22° C | 34% | 1017.4 hPa | - | - | - | - |
| 1778401268 | 26.11° C | 35% | 1017.5 hPa | - | - | - | - |
| 1778400367 | 27.22° C | 33% | 1017.7 hPa | - | - | - | - |
| 1778399466 | 27.78° C | 33% | 1017.9 hPa | - | - | - | - |
| 1778398566 | 28.33° C | 33% | 1018 hPa | - | - | - | - |
| 1778397666 | 25.56° C | 38% | 1018 hPa | - | - | - | - |
| 1778396766 | 17.78° C | 56% | 1018.1 hPa | - | - | - | - |
| 1778394966 | 16.67° C | 60% | 1018.4 hPa | - | - | - | - |
| 1778394066 | 16.67° C | 63% | 1018.5 hPa | - | - | - | - |
| 1778393166 | 15° C | 68% | 1018.6 hPa | - | - | - | - |
| 1778392266 | 14.44° C | 73% | 1018.7 hPa | - | - | - | - |
| 1778391366 | 13.33° C | 78% | 1018.7 hPa | - | - | - | - |
| 1778390466 | 12.22° C | 83% | 1018.7 hPa | - | - | - | - |
| 1778389566 | 10.56° C | 85% | 1018.7 hPa | - | - | - | - |
| 1778388666 | 10° C | 88% | 1018.8 hPa | - | - | - | - |
| 1778387766 | 10° C | 86% | 1019 hPa | - | - | - | - |
| 1778386866 | 10° C | 86% | 1019 hPa | - | - | - | - |
| 1778385965 | 10° C | 86% | 1019 hPa | - | - | - | - |
| 1778385065 | 10° C | 86% | 1019 hPa | - | - | - | - |
| 1778384165 | 9.44° C | 87% | 1019.1 hPa | - | - | - | - |
| 1778383265 | 10° C | 87% | 1019 hPa | - | - | - | - |
| 1778382365 | 9.44° C | 89% | 1019 hPa | - | - | - | - |
* Rain since midnight (hover to see other rain measurements)
** Current wind speed in m/s (hover to see current wind gust speed)